sensor_id;sensor_type;location;lat;lon;timestamp;P1;durP1;ratioP1;P2;durP2;ratioP2
60314;SDS011;46159;42.550;21.904;2023-03-24T00:00:18;48.05;;;28.67;;
60314;SDS011;46159;42.550;21.904;2023-03-24T00:02:44;43.45;;;30.20;;
60314;SDS011;46159;42.550;21.904;2023-03-24T00:05:12;40.13;;;27.38;;
60314;SDS011;46159;42.550;21.904;2023-03-24T00:07:38;39.90;;;27.67;;
60314;SDS011;46159;42.550;21.904;2023-03-24T00:10:06;46.45;;;29.58;;
60314;SDS011;46159;42.550;21.904;2023-03-24T00:12:33;53.17;;;31.65;;
60314;SDS011;46159;42.550;21.904;2023-03-24T00:15:02;50.40;;;36.05;;
60314;SDS011;46159;42.550;21.904;2023-03-24T00:17:28;62.85;;;37.60;;
60314;SDS011;46159;42.550;21.904;2023-03-24T00:19:54;71.60;;;46.08;;
60314;SDS011;46159;42.550;21.904;2023-03-24T00:22:22;70.88;;;41.47;;
60314;SDS011;46159;42.550;21.904;2023-03-24T00:24:48;64.82;;;42.10;;
60314;SDS011;46159;42.550;21.904;2023-03-24T00:27:14;69.18;;;43.65;;
60314;SDS011;46159;42.550;21.904;2023-03-24T00:29:41;78.82;;;48.53;;
60314;SDS011;46159;42.550;21.904;2023-03-24T00:32:08;82.75;;;49.67;;
60314;SDS011;46159;42.550;21.904;2023-03-24T00:34:34;76.18;;;48.65;;
60314;SDS011;46159;42.550;21.904;2023-03-24T00:37:03;78.32;;;49.05;;
60314;SDS011;46159;42.550;21.904;2023-03-24T00:39:30;75.53;;;47.72;;
60314;SDS011;46159;42.550;21.904;2023-03-24T00:41:56;73.68;;;45.33;;
60314;SDS011;46159;42.550;21.904;2023-03-24T00:44:23;65.10;;;42.00;;
60314;SDS011;46159;42.550;21.904;2023-03-24T00:46:50;57.00;;;40.42;;
60314;SDS011;46159;42.550;21.904;2023-03-24T00:49:23;57.05;;;40.60;;
60314;SDS011;46159;42.550;21.904;2023-03-24T00:52:15;57.80;;;39.38;;
60314;SDS011;46159;42.550;21.904;2023-03-24T00:54:45;61.63;;;40.05;;
60314;SDS011;46159;42.550;21.904;2023-03-24T00:57:12;57.08;;;38.40;;
60314;SDS011;46159;42.550;21.904;2023-03-24T00:59:39;61.47;;;40.75;;
60314;SDS011;46159;42.550;21.904;2023-03-24T01:02:13;58.65;;;38.97;;
60314;SDS011;46159;42.550;21.904;2023-03-24T01:04:40;56.00;;;37.70;;
60314;SDS011;46159;42.550;21.904;2023-03-24T01:07:11;58.90;;;40.63;;
60314;SDS011;46159;42.550;21.904;2023-03-24T01:09:37;62.80;;;42.50;;
60314;SDS011;46159;42.550;21.904;2023-03-24T01:12:03;55.10;;;39.53;;
60314;SDS011;46159;42.550;21.904;2023-03-24T01:14:30;60.53;;;41.88;;
60314;SDS011;46159;42.550;21.904;2023-03-24T01:16:56;57.97;;;40.92;;
60314;SDS011;46159;42.550;21.904;2023-03-24T01:19:22;61.08;;;41.60;;
60314;SDS011;46159;42.550;21.904;2023-03-24T01:21:49;63.30;;;42.38;;
60314;SDS011;46159;42.550;21.904;2023-03-24T01:24:19;60.28;;;42.20;;
60314;SDS011;46159;42.550;21.904;2023-03-24T01:26:45;59.55;;;41.10;;
60314;SDS011;46159;42.550;21.904;2023-03-24T01:29:11;62.13;;;42.42;;
60314;SDS011;46159;42.550;21.904;2023-03-24T01:31:37;66.63;;;45.88;;
60314;SDS011;46159;42.550;21.904;2023-03-24T01:34:03;72.55;;;44.67;;
60314;SDS011;46159;42.550;21.904;2023-03-24T01:36:29;69.75;;;45.78;;
60314;SDS011;46159;42.550;21.904;2023-03-24T01:38:55;53.30;;;36.63;;
60314;SDS011;46159;42.550;21.904;2023-03-24T01:41:25;50.42;;;36.53;;
60314;SDS011;46159;42.550;21.904;2023-03-24T01:43:52;50.38;;;34.75;;
60314;SDS011;46159;42.550;21.904;2023-03-24T01:48:53;50.03;;;34.45;;
60314;SDS011;46159;42.550;21.904;2023-03-24T01:54:02;53.67;;;36.28;;
60314;SDS011;46159;42.550;21.904;2023-03-24T01:56:31;51.83;;;36.97;;
60314;SDS011;46159;42.550;21.904;2023-03-24T01:58:59;51.42;;;35.53;;
60314;SDS011;46159;42.550;21.904;2023-03-24T02:01:26;47.53;;;33.63;;
60314;SDS011;46159;42.550;21.904;2023-03-24T02:03:55;49.47;;;34.30;;
60314;SDS011;46159;42.550;21.904;2023-03-24T02:06:22;49.78;;;35.95;;
60314;SDS011;46159;42.550;21.904;2023-03-24T02:08:52;49.50;;;34.10;;
60314;SDS011;46159;42.550;21.904;2023-03-24T02:11:19;47.85;;;35.13;;
60314;SDS011;46159;42.550;21.904;2023-03-24T02:13:45;46.38;;;33.75;;
60314;SDS011;46159;42.550;21.904;2023-03-24T02:26:35;51.28;;;32.53;;
60314;SDS011;46159;42.550;21.904;2023-03-24T02:39:42;51.50;;;33.33;;
60314;SDS011;46159;42.550;21.904;2023-03-24T02:47:19;50.88;;;33.55;;
60314;SDS011;46159;42.550;21.904;2023-03-24T02:49:53;52.30;;;35.17;;
60314;SDS011;46159;42.550;21.904;2023-03-24T02:55:08;54.28;;;34.47;;
60314;SDS011;46159;42.550;21.904;2023-03-24T03:00:19;47.80;;;34.38;;
60314;SDS011;46159;42.550;21.904;2023-03-24T03:02:48;51.85;;;34.47;;
60314;SDS011;46159;42.550;21.904;2023-03-24T03:05:26;50.08;;;33.92;;
60314;SDS011;46159;42.550;21.904;2023-03-24T03:07:53;47.05;;;34.55;;
60314;SDS011;46159;42.550;21.904;2023-03-24T03:10:22;53.58;;;34.50;;
60314;SDS011;46159;42.550;21.904;2023-03-24T03:12:49;48.53;;;34.60;;
60314;SDS011;46159;42.550;21.904;2023-03-24T03:15:36;47.60;;;33.42;;
60314;SDS011;46159;42.550;21.904;2023-03-24T03:20:30;47.97;;;33.27;;
60314;SDS011;46159;42.550;21.904;2023-03-24T03:23:06;47.50;;;32.28;;
60314;SDS011;46159;42.550;21.904;2023-03-24T03:25:34;47.45;;;33.00;;
60314;SDS011;46159;42.550;21.904;2023-03-24T03:28:03;49.67;;;33.80;;
60314;SDS011;46159;42.550;21.904;2023-03-24T03:30:33;49.97;;;34.58;;
60314;SDS011;46159;42.550;21.904;2023-03-24T03:33:07;51.72;;;34.17;;
60314;SDS011;46159;42.550;21.904;2023-03-24T03:35:36;53.13;;;35.28;;
60314;SDS011;46159;42.550;21.904;2023-03-24T03:40:34;57.63;;;35.58;;
60314;SDS011;46159;42.550;21.904;2023-03-24T03:43:02;50.28;;;33.10;;
60314;SDS011;46159;42.550;21.904;2023-03-24T03:45:28;55.67;;;37.15;;
60314;SDS011;46159;42.550;21.904;2023-03-24T03:47:54;56.38;;;36.45;;
60314;SDS011;46159;42.550;21.904;2023-03-24T03:50:20;55.55;;;36.50;;
60314;SDS011;46159;42.550;21.904;2023-03-24T03:52:47;53.10;;;35.10;;
60314;SDS011;46159;42.550;21.904;2023-03-24T03:55:13;48.85;;;30.27;;
60314;SDS011;46159;42.550;21.904;2023-03-24T03:57:39;41.55;;;28.88;;
60314;SDS011;46159;42.550;21.904;2023-03-24T04:00:06;42.72;;;27.75;;
60314;SDS011;46159;42.550;21.904;2023-03-24T04:02:46;37.92;;;26.65;;
60314;SDS011;46159;42.550;21.904;2023-03-24T04:05:24;39.90;;;26.25;;
60314;SDS011;46159;42.550;21.904;2023-03-24T04:08:06;40.33;;;26.45;;
60314;SDS011;46159;42.550;21.904;2023-03-24T04:13:16;39.65;;;26.33;;
60314;SDS011;46159;42.550;21.904;2023-03-24T04:15:45;37.03;;;24.52;;
60314;SDS011;46159;42.550;21.904;2023-03-24T04:18:19;33.55;;;22.55;;
60314;SDS011;46159;42.550;21.904;2023-03-24T04:20:56;29.25;;;22.65;;
60314;SDS011;46159;42.550;21.904;2023-03-24T04:31:03;33.72;;;23.80;;
60314;SDS011;46159;42.550;21.904;2023-03-24T04:33:40;35.33;;;22.67;;
60314;SDS011;46159;42.550;21.904;2023-03-24T04:36:32;33.28;;;22.02;;
60314;SDS011;46159;42.550;21.904;2023-03-24T04:38:56;32.65;;;22.63;;
60314;SDS011;46159;42.550;21.904;2023-03-24T04:41:25;31.77;;;23.77;;
60314;SDS011;46159;42.550;21.904;2023-03-24T04:43:51;35.90;;;23.52;;
60314;SDS011;46159;42.550;21.904;2023-03-24T04:46:19;35.45;;;22.75;;
60314;SDS011;46159;42.550;21.904;2023-03-24T04:48:45;37.63;;;22.75;;
60314;SDS011;46159;42.550;21.904;2023-03-24T04:51:18;33.47;;;22.90;;
60314;SDS011;46159;42.550;21.904;2023-03-24T04:53:46;32.90;;;22.17;;
60314;SDS011;46159;42.550;21.904;2023-03-24T04:58:53;44.22;;;27.17;;
60314;SDS011;46159;42.550;21.904;2023-03-24T05:01:20;44.00;;;26.20;;
60314;SDS011;46159;42.550;21.904;2023-03-24T05:03:47;30.13;;;21.27;;
60314;SDS011;46159;42.550;21.904;2023-03-24T05:06:13;33.95;;;20.25;;
60314;SDS011;46159;42.550;21.904;2023-03-24T05:08:39;32.45;;;21.30;;
60314;SDS011;46159;42.550;21.904;2023-03-24T05:11:06;34.22;;;22.13;;
60314;SDS011;46159;42.550;21.904;2023-03-24T05:13:32;31.80;;;21.40;;
60314;SDS011;46159;42.550;21.904;2023-03-24T05:15:58;37.00;;;24.33;;
60314;SDS011;46159;42.550;21.904;2023-03-24T05:18:24;38.50;;;27.15;;
60314;SDS011;46159;42.550;21.904;2023-03-24T05:20:50;45.72;;;29.27;;
60314;SDS011;46159;42.550;21.904;2023-03-24T05:23:17;49.85;;;26.77;;
60314;SDS011;46159;42.550;21.904;2023-03-24T05:25:44;36.15;;;22.83;;
60314;SDS011;46159;42.550;21.904;2023-03-24T05:28:10;31.35;;;22.75;;
60314;SDS011;46159;42.550;21.904;2023-03-24T05:30:36;41.53;;;25.40;;
60314;SDS011;46159;42.550;21.904;2023-03-24T05:33:02;48.97;;;27.90;;
60314;SDS011;46159;42.550;21.904;2023-03-24T05:35:28;61.10;;;31.92;;
60314;SDS011;46159;42.550;21.904;2023-03-24T05:37:55;50.67;;;33.20;;
60314;SDS011;46159;42.550;21.904;2023-03-24T05:40:21;49.63;;;35.15;;
60314;SDS011;46159;42.550;21.904;2023-03-24T05:42:48;53.00;;;36.25;;
60314;SDS011;46159;42.550;21.904;2023-03-24T05:45:14;67.78;;;37.33;;
60314;SDS011;46159;42.550;21.904;2023-03-24T05:47:40;51.95;;;32.28;;
60314;SDS011;46159;42.550;21.904;2023-03-24T05:50:06;46.67;;;27.73;;
60314;SDS011;46159;42.550;21.904;2023-03-24T05:52:33;45.83;;;25.00;;
60314;SDS011;46159;42.550;21.904;2023-03-24T05:55:00;39.47;;;25.90;;
60314;SDS011;46159;42.550;21.904;2023-03-24T05:57:26;42.00;;;30.02;;
60314;SDS011;46159;42.550;21.904;2023-03-24T05:59:56;46.85;;;32.08;;
60314;SDS011;46159;42.550;21.904;2023-03-24T06:02:22;44.22;;;27.95;;
60314;SDS011;46159;42.550;21.904;2023-03-24T06:04:49;44.63;;;30.55;;
60314;SDS011;46159;42.550;21.904;2023-03-24T06:07:15;50.85;;;34.75;;
60314;SDS011;46159;42.550;21.904;2023-03-24T06:09:42;50.35;;;37.33;;
60314;SDS011;46159;42.550;21.904;2023-03-24T06:12:11;48.83;;;39.00;;
60314;SDS011;46159;42.550;21.904;2023-03-24T06:14:37;65.00;;;41.00;;
60314;SDS011;46159;42.550;21.904;2023-03-24T06:17:06;43.90;;;34.13;;
60314;SDS011;46159;42.550;21.904;2023-03-24T06:19:32;40.50;;;31.25;;
60314;SDS011;46159;42.550;21.904;2023-03-24T06:21:58;50.72;;;31.10;;
60314;SDS011;46159;42.550;21.904;2023-03-24T06:24:27;47.85;;;31.80;;
60314;SDS011;46159;42.550;21.904;2023-03-24T06:26:53;39.08;;;32.13;;
60314;SDS011;46159;42.550;21.904;2023-03-24T06:29:26;38.20;;;25.98;;
60314;SDS011;46159;42.550;21.904;2023-03-24T06:31:52;30.27;;;22.75;;
60314;SDS011;46159;42.550;21.904;2023-03-24T06:34:18;23.95;;;19.63;;
60314;SDS011;46159;42.550;21.904;2023-03-24T06:36:44;23.50;;;18.73;;
60314;SDS011;46159;42.550;21.904;2023-03-24T06:39:10;22.73;;;16.90;;
60314;SDS011;46159;42.550;21.904;2023-03-24T06:41:36;22.92;;;16.75;;
60314;SDS011;46159;42.550;21.904;2023-03-24T06:44:02;19.17;;;12.95;;
60314;SDS011;46159;42.550;21.904;2023-03-24T06:46:29;27.60;;;15.75;;
60314;SDS011;46159;42.550;21.904;2023-03-24T06:48:55;32.35;;;17.90;;
60314;SDS011;46159;42.550;21.904;2023-03-24T06:51:21;25.52;;;15.85;;
60314;SDS011;46159;42.550;21.904;2023-03-24T06:53:47;22.27;;;15.45;;
60314;SDS011;46159;42.550;21.904;2023-03-24T06:56:14;27.15;;;19.13;;
60314;SDS011;46159;42.550;21.904;2023-03-24T06:58:45;26.02;;;18.52;;
60314;SDS011;46159;42.550;21.904;2023-03-24T07:01:12;31.17;;;20.95;;
60314;SDS011;46159;42.550;21.904;2023-03-24T07:03:39;38.28;;;23.30;;
60314;SDS011;46159;42.550;21.904;2023-03-24T07:06:06;34.45;;;21.70;;
60314;SDS011;46159;42.550;21.904;2023-03-24T07:08:33;31.55;;;23.33;;
60314;SDS011;46159;42.550;21.904;2023-03-24T07:10:59;35.42;;;22.90;;
60314;SDS011;46159;42.550;21.904;2023-03-24T07:13:26;53.00;;;39.55;;
60314;SDS011;46159;42.550;21.904;2023-03-24T07:15:52;27.08;;;22.25;;
60314;SDS011;46159;42.550;21.904;2023-03-24T07:18:18;29.00;;;21.88;;
60314;SDS011;46159;42.550;21.904;2023-03-24T07:20:46;42.92;;;22.08;;
60314;SDS011;46159;42.550;21.904;2023-03-24T07:23:13;62.50;;;26.15;;
60314;SDS011;46159;42.550;21.904;2023-03-24T07:25:39;24.27;;;18.63;;
60314;SDS011;46159;42.550;21.904;2023-03-24T07:28:06;41.80;;;23.40;;
60314;SDS011;46159;42.550;21.904;2023-03-24T07:30:32;50.58;;;24.30;;
60314;SDS011;46159;42.550;21.904;2023-03-24T07:33:00;27.60;;;21.98;;
60314;SDS011;46159;42.550;21.904;2023-03-24T07:35:27;32.75;;;22.02;;
60314;SDS011;46159;42.550;21.904;2023-03-24T07:37:56;38.83;;;20.13;;
60314;SDS011;46159;42.550;21.904;2023-03-24T07:40:22;29.05;;;19.80;;
60314;SDS011;46159;42.550;21.904;2023-03-24T07:42:48;22.45;;;17.05;;
60314;SDS011;46159;42.550;21.904;2023-03-24T07:45:15;24.02;;;16.63;;
60314;SDS011;46159;42.550;21.904;2023-03-24T07:47:44;37.85;;;16.55;;
60314;SDS011;46159;42.550;21.904;2023-03-24T07:50:11;41.47;;;16.25;;
60314;SDS011;46159;42.550;21.904;2023-03-24T07:52:41;20.60;;;13.15;;
60314;SDS011;46159;42.550;21.904;2023-03-24T07:55:08;28.85;;;12.55;;
60314;SDS011;46159;42.550;21.904;2023-03-24T07:57:36;17.80;;;10.02;;
60314;SDS011;46159;42.550;21.904;2023-03-24T08:00:03;17.15;;;12.77;;
60314;SDS011;46159;42.550;21.904;2023-03-24T08:02:59;19.08;;;11.07;;
60314;SDS011;46159;42.550;21.904;2023-03-24T08:05:25;54.08;;;21.83;;
60314;SDS011;46159;42.550;21.904;2023-03-24T08:07:53;29.95;;;23.55;;
60314;SDS011;46159;42.550;21.904;2023-03-24T08:10:23;27.45;;;13.45;;
60314;SDS011;46159;42.550;21.904;2023-03-24T08:12:51;17.85;;;12.18;;
60314;SDS011;46159;42.550;21.904;2023-03-24T08:15:17;25.05;;;15.88;;
60314;SDS011;46159;42.550;21.904;2023-03-24T08:17:43;20.13;;;15.10;;
60314;SDS011;46159;42.550;21.904;2023-03-24T08:20:10;18.58;;;13.20;;
60314;SDS011;46159;42.550;21.904;2023-03-24T08:22:38;14.95;;;11.98;;
60314;SDS011;46159;42.550;21.904;2023-03-24T08:25:05;18.73;;;14.40;;
60314;SDS011;46159;42.550;21.904;2023-03-24T08:27:31;15.63;;;10.70;;
60314;SDS011;46159;42.550;21.904;2023-03-24T08:29:57;16.52;;;10.48;;
60314;SDS011;46159;42.550;21.904;2023-03-24T08:32:23;13.38;;;9.20;;
60314;SDS011;46159;42.550;21.904;2023-03-24T08:34:49;33.90;;;14.20;;
60314;SDS011;46159;42.550;21.904;2023-03-24T08:37:15;18.17;;;10.70;;
60314;SDS011;46159;42.550;21.904;2023-03-24T08:39:41;17.75;;;12.27;;
60314;SDS011;46159;42.550;21.904;2023-03-24T08:42:07;16.63;;;12.57;;
60314;SDS011;46159;42.550;21.904;2023-03-24T08:44:33;20.20;;;12.15;;
60314;SDS011;46159;42.550;21.904;2023-03-24T08:47:00;47.53;;;15.20;;
60314;SDS011;46159;42.550;21.904;2023-03-24T08:49:26;14.15;;;9.95;;
60314;SDS011;46159;42.550;21.904;2023-03-24T08:51:52;18.88;;;12.10;;
60314;SDS011;46159;42.550;21.904;2023-03-24T08:54:18;22.67;;;18.48;;
60314;SDS011;46159;42.550;21.904;2023-03-24T08:56:47;21.60;;;11.93;;
60314;SDS011;46159;42.550;21.904;2023-03-24T08:59:13;20.08;;;15.20;;
60314;SDS011;46159;42.550;21.904;2023-03-24T09:01:39;14.02;;;9.45;;
60314;SDS011;46159;42.550;21.904;2023-03-24T09:04:05;14.50;;;10.40;;
60314;SDS011;46159;42.550;21.904;2023-03-24T09:06:32;24.50;;;10.70;;
60314;SDS011;46159;42.550;21.904;2023-03-24T09:08:58;18.05;;;12.45;;
60314;SDS011;46159;42.550;21.904;2023-03-24T09:11:24;17.13;;;10.57;;
60314;SDS011;46159;42.550;21.904;2023-03-24T09:13:50;16.73;;;10.38;;
60314;SDS011;46159;42.550;21.904;2023-03-24T09:16:17;20.08;;;13.48;;
60314;SDS011;46159;42.550;21.904;2023-03-24T09:18:43;15.43;;;12.70;;
60314;SDS011;46159;42.550;21.904;2023-03-24T09:21:10;16.35;;;13.90;;
60314;SDS011;46159;42.550;21.904;2023-03-24T09:23:36;23.73;;;15.30;;
60314;SDS011;46159;42.550;21.904;2023-03-24T09:26:03;13.85;;;9.25;;
60314;SDS011;46159;42.550;21.904;2023-03-24T09:28:31;14.45;;;9.68;;
60314;SDS011;46159;42.550;21.904;2023-03-24T09:30:57;23.75;;;10.05;;
60314;SDS011;46159;42.550;21.904;2023-03-24T09:33:24;40.90;;;23.67;;
60314;SDS011;46159;42.550;21.904;2023-03-24T09:35:54;13.82;;;8.43;;
60314;SDS011;46159;42.550;21.904;2023-03-24T09:38:21;18.65;;;13.98;;
60314;SDS011;46159;42.550;21.904;2023-03-24T09:40:48;23.58;;;16.42;;
60314;SDS011;46159;42.550;21.904;2023-03-24T09:45:52;19.73;;;8.23;;
60314;SDS011;46159;42.550;21.904;2023-03-24T09:50:59;13.23;;;7.65;;
60314;SDS011;46159;42.550;21.904;2023-03-24T09:53:30;17.58;;;8.65;;
60314;SDS011;46159;42.550;21.904;2023-03-24T09:56:01;16.25;;;8.98;;
60314;SDS011;46159;42.550;21.904;2023-03-24T09:58:28;17.45;;;11.35;;
60314;SDS011;46159;42.550;21.904;2023-03-24T10:00:57;13.40;;;7.10;;
60314;SDS011;46159;42.550;21.904;2023-03-24T10:03:23;28.50;;;10.35;;
60314;SDS011;46159;42.550;21.904;2023-03-24T10:05:54;24.35;;;8.73;;
60314;SDS011;46159;42.550;21.904;2023-03-24T10:13:59;12.38;;;7.88;;
60314;SDS011;46159;42.550;21.904;2023-03-24T10:18:46;16.10;;;7.95;;
60314;SDS011;46159;42.550;21.904;2023-03-24T10:21:16;13.15;;;7.35;;
60314;SDS011;46159;42.550;21.904;2023-03-24T10:23:53;25.30;;;9.05;;
60314;SDS011;46159;42.550;21.904;2023-03-24T10:27:06;16.02;;;8.50;;
60314;SDS011;46159;42.550;21.904;2023-03-24T10:31:52;19.92;;;9.82;;
60314;SDS011;46159;42.550;21.904;2023-03-24T10:34:27;11.38;;;8.82;;
60314;SDS011;46159;42.550;21.904;2023-03-24T10:36:56;14.10;;;9.25;;
60314;SDS011;46159;42.550;21.904;2023-03-24T10:39:22;18.95;;;9.75;;
60314;SDS011;46159;42.550;21.904;2023-03-24T10:41:49;11.88;;;8.70;;
60314;SDS011;46159;42.550;21.904;2023-03-24T10:44:16;13.68;;;9.40;;
60314;SDS011;46159;42.550;21.904;2023-03-24T10:46:44;20.15;;;11.23;;
60314;SDS011;46159;42.550;21.904;2023-03-24T10:51:38;13.55;;;8.15;;
60314;SDS011;46159;42.550;21.904;2023-03-24T10:56:43;22.33;;;9.60;;
60314;SDS011;46159;42.550;21.904;2023-03-24T11:04:25;14.48;;;8.52;;
60314;SDS011;46159;42.550;21.904;2023-03-24T11:07:03;10.73;;;7.18;;
60314;SDS011;46159;42.550;21.904;2023-03-24T11:09:43;11.93;;;7.40;;
60314;SDS011;46159;42.550;21.904;2023-03-24T11:12:29;44.95;;;11.93;;
60314;SDS011;46159;42.550;21.904;2023-03-24T11:17:31;12.13;;;7.22;;
60314;SDS011;46159;42.550;21.904;2023-03-24T11:19:57;13.82;;;8.63;;
60314;SDS011;46159;42.550;21.904;2023-03-24T11:22:23;13.60;;;9.25;;
60314;SDS011;46159;42.550;21.904;2023-03-24T11:24:51;14.32;;;7.13;;
60314;SDS011;46159;42.550;21.904;2023-03-24T11:27:20;16.50;;;7.15;;
60314;SDS011;46159;42.550;21.904;2023-03-24T11:29:52;15.27;;;7.65;;
60314;SDS011;46159;42.550;21.904;2023-03-24T11:32:25;13.15;;;7.30;;
60314;SDS011;46159;42.550;21.904;2023-03-24T11:35:13;14.85;;;10.18;;
60314;SDS011;46159;42.550;21.904;2023-03-24T11:37:41;14.07;;;8.05;;
60314;SDS011;46159;42.550;21.904;2023-03-24T11:42:41;16.10;;;6.68;;
60314;SDS011;46159;42.550;21.904;2023-03-24T11:45:19;13.90;;;6.28;;
60314;SDS011;46159;42.550;21.904;2023-03-24T11:47:45;14.60;;;7.38;;
60314;SDS011;46159;42.550;21.904;2023-03-24T11:55:33;12.25;;;7.50;;
60314;SDS011;46159;42.550;21.904;2023-03-24T12:00:53;10.35;;;6.00;;
60314;SDS011;46159;42.550;21.904;2023-03-24T12:03:28;18.40;;;7.22;;
60314;SDS011;46159;42.550;21.904;2023-03-24T12:14:06;8.02;;;4.78;;
60314;SDS011;46159;42.550;21.904;2023-03-24T12:24:27;10.27;;;4.40;;
60314;SDS011;46159;42.550;21.904;2023-03-24T12:26:59;9.68;;;4.95;;
60314;SDS011;46159;42.550;21.904;2023-03-24T12:29:48;14.07;;;4.45;;
60314;SDS011;46159;42.550;21.904;2023-03-24T12:32:15;10.10;;;3.67;;
60314;SDS011;46159;42.550;21.904;2023-03-24T12:39:51;15.43;;;6.82;;
60314;SDS011;46159;42.550;21.904;2023-03-24T12:42:22;10.38;;;3.65;;
60314;SDS011;46159;42.550;21.904;2023-03-24T12:55:11;14.00;;;6.35;;
60314;SDS011;46159;42.550;21.904;2023-03-24T12:57:40;10.82;;;4.57;;
60314;SDS011;46159;42.550;21.904;2023-03-24T13:00:50;10.05;;;3.60;;
60314;SDS011;46159;42.550;21.904;2023-03-24T13:02:57;10.00;;;5.05;;
60314;SDS011;46159;42.550;21.904;2023-03-24T13:05:29;9.30;;;4.32;;
60314;SDS011;46159;42.550;21.904;2023-03-24T13:07:56;9.52;;;3.95;;
60314;SDS011;46159;42.550;21.904;2023-03-24T13:10:27;15.23;;;9.23;;
60314;SDS011;46159;42.550;21.904;2023-03-24T13:15:24;14.60;;;8.32;;
60314;SDS011;46159;42.550;21.904;2023-03-24T13:20:32;8.25;;;2.97;;
60314;SDS011;46159;42.550;21.904;2023-03-24T13:28:27;18.52;;;8.65;;
60314;SDS011;46159;42.550;21.904;2023-03-24T13:30:55;10.40;;;5.30;;
60314;SDS011;46159;42.550;21.904;2023-03-24T13:33:23;11.25;;;3.85;;
60314;SDS011;46159;42.550;21.904;2023-03-24T13:38:20;11.95;;;5.32;;
60314;SDS011;46159;42.550;21.904;2023-03-24T13:40:51;9.48;;;3.88;;
60314;SDS011;46159;42.550;21.904;2023-03-24T13:43:19;15.80;;;6.38;;
60314;SDS011;46159;42.550;21.904;2023-03-24T13:45:49;27.98;;;8.45;;
60314;SDS011;46159;42.550;21.904;2023-03-24T13:48:19;16.65;;;6.55;;
60314;SDS011;46159;42.550;21.904;2023-03-24T13:50:59;11.93;;;4.22;;
60314;SDS011;46159;42.550;21.904;2023-03-24T13:53:42;10.82;;;3.08;;
60314;SDS011;46159;42.550;21.904;2023-03-24T13:56:09;10.95;;;5.75;;
60314;SDS011;46159;42.550;21.904;2023-03-24T14:03:38;12.30;;;5.15;;
60314;SDS011;46159;42.550;21.904;2023-03-24T14:06:04;16.33;;;9.77;;
60314;SDS011;46159;42.550;21.904;2023-03-24T14:13:52;17.83;;;9.18;;
60314;SDS011;46159;42.550;21.904;2023-03-24T14:16:25;15.23;;;7.65;;
60314;SDS011;46159;42.550;21.904;2023-03-24T14:18:52;9.35;;;5.28;;
60314;SDS011;46159;42.550;21.904;2023-03-24T14:21:32;15.23;;;6.25;;
60314;SDS011;46159;42.550;21.904;2023-03-24T14:24:00;13.63;;;7.38;;
60314;SDS011;46159;42.550;21.904;2023-03-24T14:26:29;11.55;;;3.90;;
60314;SDS011;46159;42.550;21.904;2023-03-24T14:28:58;12.27;;;5.80;;
60314;SDS011;46159;42.550;21.904;2023-03-24T14:36:33;11.13;;;4.47;;
60314;SDS011;46159;42.550;21.904;2023-03-24T14:41:54;9.48;;;3.45;;
60314;SDS011;46159;42.550;21.904;2023-03-24T14:47:05;21.08;;;8.30;;
60314;SDS011;46159;42.550;21.904;2023-03-24T14:49:31;13.50;;;4.82;;
60314;SDS011;46159;42.550;21.904;2023-03-24T14:54:37;15.07;;;9.20;;
60314;SDS011;46159;42.550;21.904;2023-03-24T14:57:03;11.18;;;6.18;;
60314;SDS011;46159;42.550;21.904;2023-03-24T14:59:35;11.85;;;4.15;;
60314;SDS011;46159;42.550;21.904;2023-03-24T15:02:04;9.05;;;3.10;;
60314;SDS011;46159;42.550;21.904;2023-03-24T15:04:37;20.38;;;5.05;;
60314;SDS011;46159;42.550;21.904;2023-03-24T15:07:03;11.43;;;5.72;;
60314;SDS011;46159;42.550;21.904;2023-03-24T15:09:30;18.20;;;10.60;;
60314;SDS011;46159;42.550;21.904;2023-03-24T15:11:57;15.65;;;7.50;;
60314;SDS011;46159;42.550;21.904;2023-03-24T15:14:24;13.65;;;6.18;;
60314;SDS011;46159;42.550;21.904;2023-03-24T15:16:51;14.77;;;5.68;;
60314;SDS011;46159;42.550;21.904;2023-03-24T15:19:25;12.63;;;4.72;;
60314;SDS011;46159;42.550;21.904;2023-03-24T15:21:58;19.25;;;6.03;;
60314;SDS011;46159;42.550;21.904;2023-03-24T15:27:07;12.50;;;8.13;;
60314;SDS011;46159;42.550;21.904;2023-03-24T15:29:39;15.80;;;7.53;;
60314;SDS011;46159;42.550;21.904;2023-03-24T15:32:05;12.18;;;6.38;;
60314;SDS011;46159;42.550;21.904;2023-03-24T15:34:35;209.95;;;19.00;;
60314;SDS011;46159;42.550;21.904;2023-03-24T15:37:04;41.05;;;7.60;;
60314;SDS011;46159;42.550;21.904;2023-03-24T15:39:32;19.38;;;5.85;;
60314;SDS011;46159;42.550;21.904;2023-03-24T15:42:00;22.52;;;7.88;;
60314;SDS011;46159;42.550;21.904;2023-03-24T15:44:29;23.88;;;18.85;;
60314;SDS011;46159;42.550;21.904;2023-03-24T15:46:58;15.10;;;9.77;;
60314;SDS011;46159;42.550;21.904;2023-03-24T15:49:26;22.35;;;9.68;;
60314;SDS011;46159;42.550;21.904;2023-03-24T15:54:29;22.65;;;5.60;;
60314;SDS011;46159;42.550;21.904;2023-03-24T15:57:00;12.27;;;4.78;;
60314;SDS011;46159;42.550;21.904;2023-03-24T15:59:35;16.48;;;7.05;;
60314;SDS011;46159;42.550;21.904;2023-03-24T16:02:06;18.70;;;9.15;;
60314;SDS011;46159;42.550;21.904;2023-03-24T16:04:35;21.58;;;11.68;;
60314;SDS011;46159;42.550;21.904;2023-03-24T16:07:02;30.55;;;15.70;;
60314;SDS011;46159;42.550;21.904;2023-03-24T16:09:34;38.35;;;28.05;;
60314;SDS011;46159;42.550;21.904;2023-03-24T16:12:02;45.63;;;19.20;;
60314;SDS011;46159;42.550;21.904;2023-03-24T16:14:29;55.88;;;19.27;;
60314;SDS011;46159;42.550;21.904;2023-03-24T16:16:58;45.65;;;16.38;;
60314;SDS011;46159;42.550;21.904;2023-03-24T16:19:24;28.95;;;20.42;;
60314;SDS011;46159;42.550;21.904;2023-03-24T16:21:50;48.05;;;24.70;;
60314;SDS011;46159;42.550;21.904;2023-03-24T16:24:16;26.27;;;16.75;;
60314;SDS011;46159;42.550;21.904;2023-03-24T16:26:42;45.38;;;21.48;;
60314;SDS011;46159;42.550;21.904;2023-03-24T16:29:18;36.55;;;19.02;;
60314;SDS011;46159;42.550;21.904;2023-03-24T16:31:46;37.85;;;25.35;;
60314;SDS011;46159;42.550;21.904;2023-03-24T16:34:13;36.20;;;24.25;;
60314;SDS011;46159;42.550;21.904;2023-03-24T16:36:39;50.15;;;23.90;;
60314;SDS011;46159;42.550;21.904;2023-03-24T16:39:09;68.70;;;24.25;;
60314;SDS011;46159;42.550;21.904;2023-03-24T16:41:37;31.10;;;21.95;;
60314;SDS011;46159;42.550;21.904;2023-03-24T16:44:03;39.95;;;22.60;;
60314;SDS011;46159;42.550;21.904;2023-03-24T16:46:30;57.67;;;26.38;;
60314;SDS011;46159;42.550;21.904;2023-03-24T16:48:57;43.90;;;29.80;;
60314;SDS011;46159;42.550;21.904;2023-03-24T16:51:23;63.75;;;30.77;;
60314;SDS011;46159;42.550;21.904;2023-03-24T16:53:49;41.80;;;31.15;;
60314;SDS011;46159;42.550;21.904;2023-03-24T16:56:18;45.78;;;30.23;;
60314;SDS011;46159;42.550;21.904;2023-03-24T16:58:45;58.42;;;28.17;;
60314;SDS011;46159;42.550;21.904;2023-03-24T17:01:34;42.80;;;26.65;;
60314;SDS011;46159;42.550;21.904;2023-03-24T17:03:59;51.47;;;32.90;;
60314;SDS011;46159;42.550;21.904;2023-03-24T17:06:26;37.47;;;26.70;;
60314;SDS011;46159;42.550;21.904;2023-03-24T17:08:53;48.55;;;31.52;;